Time;durP1;ratioP1;P1;durP2;ratioP2;P2;SDS_P1;SDS_P2;PMS_P1;PMS_P2;Temp;Humidity;BMP_temperature;BMP_pressure;BME280_temperature;BME280_humidity;BME280_pressure;Samples;Min_cycle;Max_cycle;Signal;HPM_P1;HPM_P2
2023/06/02 00:01:36;;;;;;;6.57;3.45;;;;;;;15.49;53.90;100433.94;10332795;28;20114;-67
2023/06/02 00:06:39;;;;;;;5.65;3.80;;;;;;;15.51;53.69;100442.69;10331880;28;20043;-66
2023/06/02 00:11:40;;;;;;;4.97;3.65;;;;;;;15.41;53.89;100439.53;10332235;28;20050;-67
2023/06/02 00:16:44;;;;;;;7.28;3.50;;;;;;;15.35;54.17;100440.38;10333705;28;20105;-64
2023/06/02 00:21:47;;;;;;;6.47;3.63;;;;;;;15.32;54.05;100438.88;10328390;28;20085;-67
2023/06/02 00:26:49;;;;;;;6.38;3.90;;;;;;;15.32;54.18;100436.19;10327957;28;20098;-63
2023/06/02 00:31:50;;;;;;;6.95;3.50;;;;;;;15.26;54.08;100431.59;10329070;28;20064;-65
2023/06/02 00:36:52;;;;;;;8.23;3.75;;;;;;;15.19;54.25;100426.16;10326911;28;20149;-67
2023/06/02 00:41:53;;;;;;;5.20;3.50;;;;;;;15.19;54.32;100428.03;10312435;28;20043;-65
2023/06/02 00:46:56;;;;;;;8.60;4.25;;;;;;;15.19;54.31;100437.00;10327472;28;20062;-68
2023/06/02 00:51:58;;;;;;;6.13;4.13;;;;;;;15.24;54.20;100428.25;10329176;28;20144;-66
2023/06/02 00:57:00;;;;;;;5.60;3.50;;;;;;;15.22;54.27;100430.31;10328683;28;20078;-66
2023/06/02 01:02:01;;;;;;;5.18;3.85;;;;;;;15.21;54.23;100436.78;10329674;28;20102;-67
2023/06/02 01:07:04;;;;;;;6.78;3.42;;;;;;;15.13;54.12;100431.56;10328349;28;20114;-64
2023/06/02 01:12:06;;;;;;;5.75;4.10;;;;;;;15.12;54.34;100436.13;10314695;28;20074;-67
2023/06/02 01:17:07;;;;;;;6.50;3.75;;;;;;;15.11;54.23;100445.31;10329464;28;20102;-67
2023/06/02 01:22:13;;;;;;;9.57;4.25;;;;;;;15.12;54.27;100446.13;10333208;28;20093;-66
2023/06/02 01:27:16;;;;;;;5.93;3.95;;;;;;;15.10;54.27;100437.38;10331584;28;20058;-69
2023/06/02 01:32:33;;;;;;;5.78;4.05;;;;;;;14.91;54.74;100433.56;10327228;28;20062;-62
2023/06/02 01:37:39;;;;;;;9.73;3.90;;;;;;;14.81;54.92;100447.47;10312639;28;20117;-65
2023/06/02 01:42:42;;;;;;;6.45;4.40;;;;;;;14.67;55.16;100442.00;10307067;28;20051;-65
2023/06/02 01:47:43;;;;;;;5.15;3.90;;;;;;;14.58;55.51;100453.19;10314192;28;20115;-64
2023/06/02 01:52:45;;;;;;;7.18;4.53;;;;;;;14.59;55.40;100444.88;10304793;28;20050;-65
2023/06/02 01:57:46;;;;;;;5.57;4.13;;;;;;;14.51;55.37;100450.41;10315653;28;20138;-63
2023/06/02 02:02:49;;;;;;;10.30;4.70;;;;;;;14.33;55.91;100450.09;10310682;28;20304;-63
2023/06/02 02:07:52;;;;;;;5.28;3.90;;;;;;;14.27;55.88;100451.72;10309890;28;20077;-62
2023/06/02 02:12:53;;;;;;;5.90;3.95;;;;;;;14.31;55.77;100447.59;10310072;28;20067;-62
2023/06/02 02:17:56;;;;;;;7.03;3.80;;;;;;;14.25;56.11;100443.78;10306261;28;20070;-64
2023/06/02 02:22:58;;;;;;;5.15;3.90;;;;;;;14.28;56.04;100445.28;10316729;28;20055;-63
2023/06/02 02:27:59;;;;;;;5.35;3.28;;;;;;;14.20;56.16;100440.03;10316279;28;20058;-63
2023/06/02 02:33:02;;;;;;;8.30;4.35;;;;;;;14.06;56.49;100439.94;10316063;28;20538;-65
2023/06/02 02:38:05;;;;;;;7.63;4.22;;;;;;;14.07;56.34;100436.19;10320181;28;20058;-64
2023/06/02 02:43:06;;;;;;;7.03;4.50;;;;;;;14.14;56.49;100451.63;10319004;28;20106;-63
2023/06/02 02:48:08;;;;;;;8.20;3.58;;;;;;;14.12;56.16;100441.03;10321723;28;20065;-66
2023/06/02 02:53:11;;;;;;;8.68;3.88;;;;;;;14.08;56.39;100445.97;10317422;28;20066;-68
2023/06/02 02:58:18;;;;;;;5.82;3.58;;;;;;;14.01;56.43;100453.19;10314153;28;20119;-63
2023/06/02 03:03:20;;;;;;;8.13;4.38;;;;;;;13.95;56.80;100453.97;10297687;28;20074;-63
2023/06/02 03:08:22;;;;;;;8.23;4.13;;;;;;;13.85;57.02;100446.22;10314438;28;20039;-66
2023/06/02 03:13:23;;;;;;;6.97;4.10;;;;;;;13.82;57.20;100443.06;10324888;28;20062;-64
2023/06/02 03:18:25;;;;;;;13.13;4.07;;;;;;;13.82;56.92;100454.72;10310998;28;20046;-64
2023/06/02 03:23:28;;;;;;;11.40;4.32;;;;;;;13.88;56.90;100455.78;10300307;28;20035;-66
2023/06/02 03:28:29;;;;;;;10.10;4.75;;;;;;;13.91;56.89;100468.09;10290346;28;20039;-64
2023/06/02 03:33:31;;;;;;;10.43;4.60;;;;;;;13.85;57.18;100467.00;10297896;28;20050;-66
2023/06/02 03:38:32;;;;;;;8.73;4.90;;;;;;;13.89;56.68;100476.38;10300605;28;20073;-66
2023/06/02 03:43:33;;;;;;;8.63;3.92;;;;;;;13.89;56.85;100474.50;10290393;28;20046;-66
2023/06/02 03:48:35;;;;;;;9.23;4.93;;;;;;;14.00;56.43;100475.88;10292542;28;20050;-64
2023/06/02 03:53:36;;;;;;;12.10;4.35;;;;;;;13.99;56.37;100482.28;10291135;28;20042;-65
2023/06/02 03:58:38;;;;;;;8.93;4.20;;;;;;;14.01;56.41;100484.81;10288288;28;20053;-65
2023/06/02 04:03:41;;;;;;;7.40;4.43;;;;;;;14.03;56.27;100494.38;10287983;28;20046;-64
2023/06/02 04:08:43;;;;;;;6.22;4.05;;;;;;;14.16;55.91;100492.81;10289434;28;20105;-65
2023/06/02 04:13:44;;;;;;;14.77;5.40;;;;;;;14.24;55.44;100501.63;10289389;28;20046;-66
2023/06/02 04:18:46;;;;;;;9.00;3.78;;;;;;;14.38;55.39;100505.25;10286387;28;20051;-65
2023/06/02 04:23:48;;;;;;;12.05;4.65;;;;;;;14.48;55.06;100508.44;10289422;28;20434;-64
2023/06/02 04:28:50;;;;;;;12.55;3.88;;;;;;;14.64;54.85;100525.44;10292213;28;20046;-65
2023/06/02 04:33:51;;;;;;;8.43;4.35;;;;;;;14.65;54.84;100525.25;10281135;28;20055;-64
2023/06/02 04:38:52;;;;;;;9.45;4.88;;;;;;;14.69;54.68;100525.66;10285531;28;20042;-66
2023/06/02 04:43:54;;;;;;;8.07;3.65;;;;;;;14.79;54.26;100528.88;10284855;28;20440;-65
2023/06/02 04:48:56;;;;;;;9.55;4.18;;;;;;;14.84;54.05;100539.09;10292949;28;20058;-66
2023/06/02 04:53:57;;;;;;;9.73;4.43;;;;;;;14.94;53.46;100538.72;10285158;28;20134;-65
2023/06/02 04:58:59;;;;;;;9.63;4.03;;;;;;;14.95;53.11;100538.53;10281881;28;20054;-65
2023/06/02 05:04:00;;;;;;;6.75;4.25;;;;;;;14.96;52.89;100539.38;10282349;28;20043;-65
2023/06/02 05:09:02;;;;;;;7.35;3.55;;;;;;;15.03;52.60;100532.13;10283278;28;20046;-65
2023/06/02 05:14:03;;;;;;;9.30;4.57;;;;;;;15.09;52.27;100531.31;10290816;28;20053;-65
2023/06/02 05:19:05;;;;;;;10.73;4.20;;;;;;;15.13;51.70;100532.59;10271765;28;20056;-67
2023/06/02 05:24:07;;;;;;;6.60;3.63;;;;;;;15.25;51.80;100536.38;10286448;28;20609;-66
2023/06/02 05:29:08;;;;;;;12.32;4.10;;;;;;;15.46;51.26;100537.28;10285656;28;20042;-65
2023/06/02 05:34:09;;;;;;;11.57;3.63;;;;;;;15.47;51.06;100544.38;10285778;28;20425;-65
2023/06/02 05:39:11;;;;;;;7.82;3.63;;;;;;;15.46;50.72;100542.69;10281102;28;20750;-65
2023/06/02 05:44:12;;;;;;;5.57;3.15;;;;;;;15.40;50.74;100536.25;10280289;28;20059;-66
2023/06/02 05:49:14;;;;;;;9.50;3.63;;;;;;;15.43;50.17;100545.81;10278230;28;20453;-65
2023/06/02 05:54:15;;;;;;;5.82;3.88;;;;;;;15.39;49.93;100541.84;10284966;28;20062;-66
2023/06/02 05:59:17;;;;;;;8.75;3.85;;;;;;;15.46;49.89;100542.69;10289694;28;20054;-65
2023/06/02 06:04:18;;;;;;;6.55;3.38;;;;;;;15.59;49.70;100547.34;10290780;28;20061;-66
2023/06/02 06:09:20;;;;;;;4.72;2.85;;;;;;;15.80;49.31;100541.78;10289072;28;20050;-66
2023/06/02 06:14:22;;;;;;;6.88;3.08;;;;;;;16.10;49.02;100538.69;10296191;28;20485;-66
2023/06/02 06:19:23;;;;;;;7.25;2.90;;;;;;;16.06;49.02;100546.41;10291958;28;20053;-65
2023/06/02 06:24:25;;;;;;;14.23;4.32;;;;;;;16.23;48.40;100552.28;10288261;28;20069;-65
2023/06/02 06:29:26;;;;;;;4.78;2.65;;;;;;;16.20;48.39;100552.69;10282974;28;20105;-66
2023/06/02 06:34:27;;;;;;;5.88;3.03;;;;;;;16.31;47.97;100555.81;10296617;28;20397;-65
2023/06/02 06:39:29;;;;;;;6.22;3.08;;;;;;;16.50;48.03;100546.00;10302612;28;20050;-64
2023/06/02 06:44:30;;;;;;;4.88;2.40;;;;;;;16.54;48.01;100548.06;10297897;28;20047;-66
2023/06/02 06:49:32;;;;;;;5.25;3.10;;;;;;;16.36;47.91;100562.28;10297463;28;20054;-64
2023/06/02 06:54:33;;;;;;;6.85;2.50;;;;;;;16.48;47.67;100546.19;10291129;28;20050;-64
2023/06/02 06:59:34;;;;;;;6.75;3.03;;;;;;;16.64;47.17;100556.59;10296674;28;20109;-66
2023/06/02 07:04:36;;;;;;;6.70;2.60;;;;;;;16.73;46.74;100565.38;10295891;28;20082;-66
2023/06/02 07:09:37;;;;;;;6.07;2.83;;;;;;;16.61;46.92;100565.19;10301884;28;20050;-67
2023/06/02 07:14:39;;;;;;;5.03;2.75;;;;;;;16.80;46.34;100563.47;10302436;28;20047;-65
2023/06/02 07:19:40;;;;;;;9.48;2.63;;;;;;;17.01;46.30;100565.13;10302968;28;20038;-66
2023/06/02 07:24:43;;;;;;;5.45;2.60;;;;;;;17.21;46.04;100577.81;10304828;28;20050;-64
2023/06/02 07:29:45;;;;;;;6.85;2.45;;;;;;;17.00;46.11;100573.50;10301678;28;20528;-65
2023/06/02 07:34:46;;;;;;;5.57;2.63;;;;;;;16.75;46.10;100582.28;10287679;28;20038;-65
2023/06/02 07:39:48;;;;;;;6.68;3.67;;;;;;;16.85;45.98;100571.03;10291263;28;20053;-64
2023/06/02 07:44:49;;;;;;;4.55;2.45;;;;;;;16.92;45.91;100571.84;10288894;28;20055;-65
2023/06/02 07:49:51;;;;;;;9.23;2.60;;;;;;;16.97;45.72;100561.19;10287226;28;20525;-69
2023/06/02 07:54:52;;;;;;;4.90;2.58;;;;;;;17.10;45.50;100567.63;10283535;28;20154;-71
2023/06/02 07:59:54;;;;;;;4.07;2.25;;;;;;;17.29;45.17;100576.75;10287107;28;20053;-73
2023/06/02 08:04:55;;;;;;;6.75;2.80;;;;;;;17.24;45.34;100569.25;10278164;28;20051;-70
2023/06/02 08:09:57;;;;;;;6.97;2.60;;;;;;;17.27;45.13;100559.84;10288617;28;20589;-70
2023/06/02 08:14:58;;;;;;;6.75;2.72;;;;;;;17.31;45.02;100563.78;10281042;28;20120;-68
2023/06/02 08:20:01;;;;;;;6.28;2.78;;;;;;;17.29;45.07;100560.47;10281683;28;20077;-68
2023/06/02 08:25:03;;;;;;;7.25;2.67;;;;;;;17.78;44.16;100550.81;10284658;28;20166;-71
2023/06/02 08:30:06;;;;;;;6.30;2.20;;;;;;;17.89;44.22;100557.44;10279317;28;20050;-68
2023/06/02 08:35:07;;;;;;;3.47;2.35;;;;;;;17.90;44.08;100553.69;10284942;28;20692;-73
2023/06/02 08:40:10;;;;;;;5.38;2.28;;;;;;;17.83;44.04;100551.84;10289318;28;20042;-71
2023/06/02 08:45:12;;;;;;;6.90;2.17;;;;;;;18.08;43.69;100544.78;10298132;28;20042;-76
2023/06/02 08:50:14;;;;;;;7.10;2.65;;;;;;;18.11;43.19;100542.44;10267372;28;20057;-70
2023/06/02 08:55:16;;;;;;;3.75;2.60;;;;;;;18.03;43.22;100540.84;10277261;28;20046;-70
2023/06/02 09:00:19;;;;;;;5.65;2.70;;;;;;;18.31;42.80;100544.19;10275361;28;20490;-73
2023/06/02 09:05:22;;;;;;;6.63;2.50;;;;;;;18.44;42.82;100535.88;10290957;28;20494;-70
2023/06/02 09:10:30;;;;;;;8.48;2.85;;;;;;;18.65;42.09;100540.09;10282902;28;20057;-64
2023/06/02 09:15:32;;;;;;;5.93;2.30;;;;;;;18.70;41.87;100540.25;10282721;28;20042;-66
2023/06/02 09:20:38;;;;;;;6.32;2.35;;;;;;;18.89;41.47;100537.56;10282530;28;20536;-61
2023/06/02 09:25:40;;;;;;;7.75;2.80;;;;;;;18.87;41.53;100542.41;10262754;28;20066;-62
2023/06/02 09:30:42;;;;;;;4.65;2.33;;;;;;;18.99;41.23;100538.69;10282573;28;20053;-62
2023/06/02 09:35:45;;;;;;;7.60;2.60;;;;;;;19.22;41.02;100532.56;10288451;28;20042;-68
2023/06/02 09:40:46;;;;;;;7.82;2.63;;;;;;;19.16;40.54;100532.66;10285198;28;20059;-67
2023/06/02 09:45:48;;;;;;;5.13;1.80;;;;;;;19.25;40.25;100536.72;10298390;28;20537;-68
2023/06/02 09:50:50;;;;;;;11.80;2.58;;;;;;;19.34;39.94;100540.81;10292987;28;20046;-68
2023/06/02 09:55:51;;;;;;;6.68;2.17;;;;;;;19.34;39.90;100538.06;10289370;28;20077;-67
2023/06/02 10:00:53;;;;;;;7.18;1.85;;;;;;;19.57;39.97;100537.38;10293197;28;20054;-69
2023/06/02 10:06:07;;;;;;;7.38;2.05;;;;;;;19.74;39.87;100542.19;10284333;28;20133;-68
2023/06/02 10:11:20;;;;;;;3.45;2.20;;;;;;;19.64;39.64;100536.44;10286177;28;20545;-68
2023/06/02 10:16:47;;;;;;;14.30;2.47;;;;;;;19.74;39.44;100536.72;10290503;28;20046;-66
2023/06/02 10:21:58;;;;;;;;;;;;;;;19.87;39.69;100539.28;10285086;28;20061;-68
2023/06/02 10:27:23;;;;;;;5.00;2.08;;;;;;;19.95;38.77;100519.00;10286052;28;19926;-62
2023/06/02 10:32:27;;;;;;;4.63;2.00;;;;;;;20.11;38.65;100528.41;10285317;28;20051;-60
2023/06/02 10:37:34;;;;;;;5.80;1.85;;;;;;;20.27;37.98;100530.44;10292807;28;20142;-60
2023/06/02 10:42:36;;;;;;;7.22;1.75;;;;;;;20.43;38.13;100520.72;10273140;28;20061;-60
2023/06/02 10:47:38;;;;;;;7.53;2.17;;;;;;;20.65;37.34;100525.63;10289284;28;20046;-60
2023/06/02 10:53:00;;;;;;;4.60;1.92;;;;;;;20.84;36.69;100523.59;10287477;28;20082;-60
2023/06/02 10:58:06;;;;;;;9.38;2.08;;;;;;;20.90;36.39;100533.56;10288987;28;20058;-60
2023/06/02 11:03:10;;;;;;;9.95;1.70;;;;;;;20.97;36.21;100507.75;10290841;28;20051;-62
2023/06/02 11:08:18;;;;;;;5.63;1.67;;;;;;;20.97;35.39;100513.22;10286672;28;20042;-59
2023/06/02 11:13:30;;;;;;;8.88;1.92;;;;;;;21.35;35.29;100511.81;10289740;28;20055;-61
2023/06/02 11:18:31;;;;;;;6.05;1.83;;;;;;;21.68;34.69;100514.91;10279224;28;20042;-60
2023/06/02 11:23:33;;;;;;;8.02;1.65;;;;;;;21.79;34.86;100519.50;10286023;28;20078;-60
2023/06/02 11:28:34;;;;;;;7.28;3.17;;;;;;;21.91;34.51;100513.94;10282075;28;20479;-64
2023/06/02 11:33:38;;;;;;;14.48;2.63;;;;;;;22.03;34.29;100505.66;10289467;28;20388;-60
2023/06/02 11:38:41;;;;;;;5.93;1.30;;;;;;;22.15;33.73;100509.16;10281614;28;20050;-62
2023/06/02 11:43:45;;;;;;;5.13;1.88;;;;;;;21.91;34.27;100497.53;10284378;28;20055;-61
2023/06/02 11:48:46;;;;;;;9.75;1.65;;;;;;;22.23;34.03;100507.91;10289263;28;20050;-60
2023/06/02 11:54:00;;;;;;;5.82;1.63;;;;;;;22.43;33.22;100497.28;10288209;28;20046;-59
2023/06/02 11:59:01;;;;;;;6.72;1.73;;;;;;;22.57;32.90;100492.28;10290798;28;20052;-62
2023/06/02 12:04:05;;;;;;;9.80;1.30;;;;;;;22.79;33.14;100486.84;10298375;28;20050;-63
2023/06/02 12:09:11;;;;;;;5.75;1.73;;;;;;;22.74;32.92;100482.09;10287642;28;20703;-60
2023/06/02 12:14:16;;;;;;;6.87;1.53;;;;;;;22.79;32.74;100489.59;10289354;28;20046;-60
2023/06/02 12:19:22;;;;;;;6.57;1.48;;;;;;;22.76;32.59;100487.34;10283619;28;20801;-61
2023/06/02 12:24:31;;;;;;;10.90;1.40;;;;;;;22.97;32.11;100485.69;10282791;28;20054;-60
2023/06/02 12:29:33;;;;;;;5.10;1.30;;;;;;;22.99;32.11;100486.28;10284912;28;20046;-62
2023/06/02 12:34:35;;;;;;;9.43;1.38;;;;;;;23.07;32.15;100490.53;10281998;28;20109;-60
2023/06/02 12:39:36;;;;;;;4.43;1.10;;;;;;;23.23;31.63;100488.78;10279798;28;20524;-62
2023/06/02 12:44:37;;;;;;;4.97;1.05;;;;;;;23.60;31.64;100475.19;10285223;28;20482;-64
2023/06/02 12:49:39;;;;;;;3.97;0.80;;;;;;;23.97;31.09;100479.91;10281797;28;20513;-64
2023/06/02 12:54:41;;;;;;;15.25;1.27;;;;;;;24.00;31.39;100478.59;10282759;28;20691;-64
2023/06/02 12:59:42;;;;;;;6.80;1.17;;;;;;;24.24;31.20;100471.63;10282077;28;20054;-65
2023/06/02 13:04:43;;;;;;;7.78;1.08;;;;;;;24.46;30.57;100470.66;10278201;28;20054;-65
2023/06/02 13:09:46;;;;;;;6.60;0.90;;;;;;;24.79;30.30;100455.75;10280674;28;20057;-64
2023/06/02 13:14:48;;;;;;;3.70;1.00;;;;;;;24.88;29.65;100464.28;10281490;28;20042;-65
2023/06/02 13:19:49;;;;;;;4.15;1.20;;;;;;;24.86;30.30;100467.34;10267284;28;20486;-65
2023/06/02 13:24:51;;;;;;;5.53;1.33;;;;;;;24.96;29.35;100465.72;10276848;28;20050;-65
2023/06/02 13:29:52;;;;;;;4.68;1.70;;;;;;;25.50;28.94;100457.09;10281897;28;20445;-66
2023/06/02 13:34:56;;;;;;;7.15;1.02;;;;;;;25.77;28.53;100461.50;10281105;28;20050;-64
2023/06/02 13:39:58;;;;;;;6.28;1.75;;;;;;;26.24;28.56;100452.97;10278818;28;20126;-64
2023/06/02 13:44:59;;;;;;;7.82;2.45;;;;;;;26.37;28.56;100446.06;10282938;28;20054;-63
2023/06/02 13:50:00;;;;;;;2.90;1.00;;;;;;;26.60;28.00;100443.81;10280450;28;20728;-65
2023/06/02 13:55:02;;;;;;;4.05;1.00;;;;;;;26.44;27.46;100445.75;10284435;28;20050;-64
2023/06/02 14:00:04;;;;;;;5.57;1.10;;;;;;;26.42;27.79;100429.53;10280689;28;20513;-64
2023/06/02 14:05:07;;;;;;;14.63;1.27;;;;;;;26.52;27.89;100440.53;10280397;28;20058;-64
2023/06/02 14:10:08;;;;;;;7.35;1.05;;;;;;;26.20;27.79;100440.84;10280551;28;20053;-63
2023/06/02 14:15:10;;;;;;;2.15;0.80;;;;;;;26.14;27.79;100439.22;10282242;28;20055;-64
2023/06/02 14:20:11;;;;;;;9.10;1.02;;;;;;;26.30;27.69;100437.25;10285485;28;20085;-64
2023/06/02 14:25:13;;;;;;;5.57;0.90;;;;;;;26.77;27.90;100427.75;10285778;28;20046;-65
2023/06/02 14:30:14;;;;;;;6.15;1.08;;;;;;;26.83;27.37;100426.63;10290832;28;20057;-64
2023/06/02 14:35:16;;;;;;;3.85;0.90;;;;;;;27.47;26.66;100419.41;10288376;28;20039;-65
2023/06/02 14:40:18;;;;;;;6.03;0.90;;;;;;;27.60;26.02;100420.66;10286089;28;20049;-64
2023/06/02 14:45:19;;;;;;;5.60;0.93;;;;;;;28.08;25.72;100420.00;10285972;28;20563;-64
2023/06/02 14:50:21;;;;;;;6.45;0.80;;;;;;;28.28;25.13;100418.97;10286509;28;20397;-64
2023/06/02 14:55:22;;;;;;;5.22;1.00;;;;;;;28.28;25.43;100410.69;10294544;28;20050;-64
2023/06/02 15:00:24;;;;;;;3.00;0.90;;;;;;;28.42;25.01;100410.81;10281582;28;20051;-64
2023/06/02 15:05:26;;;;;;;4.43;1.10;;;;;;;28.19;25.40;100395.84;10289307;28;20053;-65
2023/06/02 15:10:27;;;;;;;4.90;1.38;;;;;;;28.17;25.54;100404.44;10287751;28;20046;-64
2023/06/02 15:15:29;;;;;;;6.43;1.00;;;;;;;28.19;25.13;100402.19;10285145;28;20045;-65
2023/06/02 15:20:30;;;;;;;5.15;0.80;;;;;;;28.02;25.00;100394.38;10286604;28;20049;-65
2023/06/02 15:25:35;;;;;;;6.75;0.82;;;;;;;27.86;24.99;100390.91;10287051;28;20119;-65
2023/06/02 15:30:37;;;;;;;7.30;1.60;;;;;;;28.28;24.68;100383.03;10287829;28;20062;-64
2023/06/02 15:35:38;;;;;;;2.95;0.90;;;;;;;28.55;23.99;100382.44;10285251;28;20055;-64
2023/06/02 15:40:40;;;;;;;4.15;0.95;;;;;;;28.95;23.39;100374.75;10287591;28;20046;-64
2023/06/02 15:45:41;;;;;;;2.90;1.05;;;;;;;29.18;22.27;100367.50;10288960;28;20047;-64
2023/06/02 15:50:42;;;;;;;3.92;0.88;;;;;;;29.42;22.03;100364.63;10281715;28;20058;-64
2023/06/02 15:55:44;;;;;;;6.22;1.10;;;;;;;29.88;21.88;100362.19;10283174;28;20399;-64
2023/06/02 16:00:45;;;;;;;3.35;1.10;;;;;;;30.15;21.57;100367.78;10288781;28;20053;-64
2023/06/02 16:05:48;;;;;;;6.03;0.90;;;;;;;30.14;20.80;100357.00;10285847;28;20085;-64
2023/06/02 16:10:49;;;;;;;4.55;1.27;;;;;;;30.49;20.67;100366.59;10284238;28;20047;-64
2023/06/02 16:15:54;;;;;;;2.45;0.73;;;;;;;30.16;20.65;100357.53;10287314;28;20403;-64
2023/06/02 16:20:55;;;;;;;5.03;0.93;;;;;;;30.49;20.69;100358.28;10282589;28;20050;-64
2023/06/02 16:25:57;;;;;;;4.30;1.70;;;;;;;30.54;20.39;100349.81;10290311;28;20063;-63
2023/06/02 16:30:58;;;;;;;4.75;1.45;;;;;;;30.74;20.17;100356.06;10283820;28;20106;-63
2023/06/02 16:36:00;;;;;;;5.60;1.13;;;;;;;30.66;19.97;100362.34;10279696;28;20050;-62
2023/06/02 16:41:01;;;;;;;3.83;1.35;;;;;;;30.66;20.55;100360.41;10279916;28;20109;-63
2023/06/02 16:46:03;;;;;;;1.85;0.95;;;;;;;31.17;20.06;100355.66;10282733;28;20051;-62
2023/06/02 16:51:05;;;;;;;3.80;1.30;;;;;;;30.75;20.60;100349.41;10280438;28;20054;-63
2023/06/02 16:56:07;;;;;;;4.80;1.48;;;;;;;31.01;20.48;100358.00;10279856;28;20058;-62
2023/06/02 17:01:09;;;;;;;4.57;1.20;;;;;;;30.82;20.38;100361.69;10284414;28;20053;-63
2023/06/02 17:06:10;;;;;;;3.35;1.30;;;;;;;30.97;20.98;100357.78;10264487;28;20114;-62
2023/06/02 17:11:12;;;;;;;6.35;1.27;;;;;;;30.84;20.61;100355.84;10287576;28;20051;-62
2023/06/02 17:16:13;;;;;;;4.45;1.25;;;;;;;30.57;21.37;100362.25;10279828;28;20053;-62
2023/06/02 17:21:15;;;;;;;7.60;1.23;;;;;;;30.75;20.97;100354.94;10284740;28;20047;-63
2023/06/02 17:26:16;;;;;;;3.67;1.00;;;;;;;30.79;21.02;100362.34;10284744;28;20049;-63
2023/06/02 17:31:18;;;;;;;8.20;1.17;;;;;;;30.75;21.07;100358.53;10276514;28;20133;-62
2023/06/02 17:36:19;;;;;;;5.85;1.13;;;;;;;30.73;21.52;100371.91;10279390;28;20066;-62
2023/06/02 17:41:21;;;;;;;4.88;1.00;;;;;;;30.80;21.91;100371.47;10264530;28;20565;-63
2023/06/02 17:46:26;;;;;;;6.55;1.35;;;;;;;30.72;23.07;100380.53;10278866;28;20035;-62
2023/06/02 17:51:27;;;;;;;4.63;1.00;;;;;;;30.72;23.05;100383.31;10277806;28;20058;-63
2023/06/02 17:56:29;;;;;;;4.45;0.77;;;;;;;30.30;23.39;100374.19;10274388;28;20074;-62
2023/06/02 18:01:30;;;;;;;6.18;1.13;;;;;;;30.33;24.50;100379.13;10288290;28;20047;-63
2023/06/02 18:06:32;;;;;;;5.10;0.70;;;;;;;30.43;23.17;100384.47;10290753;28;20045;-62
2023/06/02 18:11:33;;;;;;;2.25;0.75;;;;;;;29.83;24.08;100386.13;10290903;28;20138;-62
2023/06/02 18:16:35;;;;;;;4.00;0.85;;;;;;;29.05;24.02;100388.44;10286240;28;20058;-62
2023/06/02 18:21:38;;;;;;;3.60;1.00;;;;;;;28.27;25.06;100396.00;10286851;28;20116;-62
2023/06/02 18:26:40;;;;;;;6.13;1.40;;;;;;;27.43;26.03;100400.91;10288506;28;20086;-62
2023/06/02 18:31:41;;;;;;;3.28;0.93;;;;;;;26.69;26.72;100398.84;10286861;28;20055;-62
2023/06/02 18:36:43;;;;;;;9.48;1.20;;;;;;;25.85;27.96;100414.13;10283072;28;20090;-62
2023/06/02 18:41:45;;;;;;;10.18;1.95;;;;;;;25.38;28.84;100412.50;10288409;28;20101;-62
2023/06/02 18:46:46;;;;;;;2.92;1.00;;;;;;;24.80;29.76;100407.88;10292242;28;20050;-62
2023/06/02 18:51:48;;;;;;;4.97;1.17;;;;;;;24.22;30.08;100418.03;10291501;28;20065;-62
2023/06/02 18:56:49;;;;;;;6.85;1.08;;;;;;;23.72;30.50;100431.09;10286937;28;20050;-61
2023/06/02 19:01:51;;;;;;;4.85;1.23;;;;;;;23.29;30.89;100427.41;10289726;28;20074;-62
2023/06/02 19:06:52;;;;;;;3.67;0.90;;;;;;;22.96;31.36;100434.69;10287310;28;20054;-62
2023/06/02 19:11:53;;;;;;;3.78;1.30;;;;;;;22.68;31.54;100441.19;10289377;28;20055;-62
2023/06/02 19:16:55;;;;;;;3.53;0.90;;;;;;;22.30;32.45;100440.94;10287461;28;20043;-62
2023/06/02 19:21:57;;;;;;;4.15;1.23;;;;;;;22.06;33.01;100447.66;10289573;28;20047;-62
2023/06/02 19:26:59;;;;;;;3.92;0.85;;;;;;;21.73;33.83;100461.09;10281250;28;20042;-62
2023/06/02 19:32:01;;;;;;;2.20;0.85;;;;;;;21.45;34.53;100469.34;10288816;28;20051;-61
2023/06/02 19:37:03;;;;;;;4.40;0.80;;;;;;;21.28;35.18;100481.03;10280381;28;20803;-62
2023/06/02 19:42:04;;;;;;;5.50;2.05;;;;;;;21.09;35.72;100482.28;10287234;28;20055;-61
2023/06/02 19:47:06;;;;;;;2.50;1.00;;;;;;;20.94;35.75;100491.00;10283211;28;20113;-62
2023/06/02 19:52:08;;;;;;;6.50;1.70;;;;;;;20.63;36.29;100498.53;10287221;28;20058;-63
2023/06/02 19:57:09;;;;;;;4.43;1.05;;;;;;;20.36;36.97;100492.72;10285689;28;20043;-62
2023/06/02 20:02:10;;;;;;;7.07;1.05;;;;;;;20.13;37.75;100499.81;10287163;28;20135;-70
2023/06/02 20:07:12;;;;;;;4.38;1.15;;;;;;;19.83;38.14;100507.22;10281144;28;20050;-69
2023/06/02 20:12:13;;;;;;;6.15;0.98;;;;;;;19.52;38.95;100507.22;10285265;28;20054;-68
2023/06/02 20:17:15;;;;;;;8.32;0.90;;;;;;;19.30;39.16;100508.78;10283877;28;20054;-67
2023/06/02 20:22:17;;;;;;;6.95;0.80;;;;;;;19.13;39.55;100508.56;10283903;28;20051;-66
2023/06/02 20:27:18;;;;;;;6.82;0.95;;;;;;;19.03;39.86;100514.56;10278370;28;20039;-68
2023/06/02 20:32:20;;;;;;;4.45;0.80;;;;;;;18.89;39.62;100518.50;10280026;28;20057;-65
2023/06/02 20:37:21;;;;;;;8.95;0.90;;;;;;;18.78;39.59;100515.44;10284966;28;20137;-67
2023/06/02 20:42:23;;;;;;;3.10;0.80;;;;;;;18.67;39.92;100518.09;10279060;28;20047;-66
2023/06/02 20:47:24;;;;;;;3.85;1.38;;;;;;;18.61;40.07;100528.81;10281931;28;20410;-64
2023/06/02 20:52:27;;;;;;;5.28;1.58;;;;;;;18.54;40.34;100525.34;10283462;28;20074;-68
2023/06/02 20:57:28;;;;;;;3.70;1.27;;;;;;;18.42;40.53;100536.13;10280993;28;20046;-68
2023/06/02 21:02:30;;;;;;;5.80;1.63;;;;;;;18.38;40.51;100534.91;10283325;28;20061;-67
2023/06/02 21:07:32;;;;;;;4.40;0.70;;;;;;;18.27;40.73;100535.63;10280410;28;20066;-62
2023/06/02 21:12:33;;;;;;;6.25;1.00;;;;;;;18.19;40.89;100528.56;10281978;28;20486;-64
2023/06/02 21:17:34;;;;;;;3.97;0.75;;;;;;;18.10;41.08;100531.78;10282829;28;20394;-65
2023/06/02 21:22:36;;;;;;;3.95;0.60;;;;;;;18.08;41.08;100533.91;10279663;28;20042;-68
2023/06/02 21:27:37;;;;;;;5.57;0.80;;;;;;;18.00;41.33;100537.72;10284095;28;20069;-67
2023/06/02 21:32:39;;;;;;;5.65;1.17;;;;;;;17.91;41.44;100539.03;10279829;28;20042;-67
2023/06/02 21:37:41;;;;;;;5.28;1.00;;;;;;;17.87;41.55;100546.81;10281557;28;20049;-67
2023/06/02 21:42:42;;;;;;;4.30;0.85;;;;;;;17.82;41.51;100547.41;10285044;28;20081;-65
2023/06/02 21:47:48;;;;;;;4.85;0.70;;;;;;;17.76;42.04;100551.03;10275817;28;20050;-68
2023/06/02 21:52:51;;;;;;;3.00;0.50;;;;;;;17.74;41.85;100555.00;10281442;28;20125;-67
2023/06/02 21:57:52;;;;;;;3.78;0.70;;;;;;;17.69;42.28;100557.53;10279594;28;20168;-66
2023/06/02 22:02:53;;;;;;;6.78;0.60;;;;;;;17.61;42.52;100562.19;10278890;28;20065;-73
2023/06/02 22:07:55;;;;;;;4.80;0.80;;;;;;;17.54;42.49;100563.28;10260322;28;20059;-75
2023/06/02 22:12:56;;;;;;;4.68;0.77;;;;;;;17.49;42.78;100561.19;10286178;28;20042;-75
2023/06/02 22:17:58;;;;;;;3.42;0.63;;;;;;;17.44;43.02;100574.63;10279276;28;20039;-75
2023/06/02 22:23:00;;;;;;;3.35;0.60;;;;;;;17.36;43.35;100574.88;10281686;28;20082;-66
2023/06/02 22:28:01;;;;;;;2.75;0.50;;;;;;;17.34;43.45;100576.97;10278131;28;20046;-66
2023/06/02 22:33:03;;;;;;;4.45;0.68;;;;;;;17.30;43.63;100568.41;10287734;28;20051;-65
2023/06/02 22:38:04;;;;;;;8.88;1.70;;;;;;;17.24;43.52;100559.22;10283029;28;20054;-64
2023/06/02 22:43:06;;;;;;;3.92;0.63;;;;;;;17.21;44.25;100570.50;10288478;28;20050;-65
2023/06/02 22:48:07;;;;;;;5.22;0.60;;;;;;;17.14;44.29;100563.44;10288271;28;20043;-65
2023/06/02 22:53:09;;;;;;;6.75;0.75;;;;;;;17.09;44.54;100558.63;10290356;28;20140;-65
2023/06/02 22:58:11;;;;;;;6.70;0.73;;;;;;;17.06;44.74;100561.78;10267793;28;20046;-64
2023/06/02 23:03:14;;;;;;;4.30;0.77;;;;;;;17.03;44.94;100568.47;10287118;28;20051;-66
2023/06/02 23:08:19;;;;;;;5.82;1.05;;;;;;;17.01;45.02;100558.88;10290221;28;20050;-66